Time;durP1;ratioP1;P1;durP2;ratioP2;P2;SDS_P1;SDS_P2;PMS_P1;PMS_P2;Temp;Humidity;BMP_temperature;BMP_pressure;BME280_temperature;BME280_humidity;BME280_pressure;Samples;Min_cycle;Max_cycle;Signal;HPM_P1;HPM_P2
2023/10/14 00:00:41;;;;;;;3.28;1.88;;;;;;;19.04;81.73;95740.03;5036364;28;20255;-69
2023/10/14 00:03:26;;;;;;;2.40;1.30;;;;;;;19.08;82.19;95738.53;5035836;28;20239;-69
2023/10/14 00:05:53;;;;;;;2.95;1.42;;;;;;;19.06;82.57;95745.97;5036041;28;20216;-69
2023/10/14 00:08:21;;;;;;;4.03;1.50;;;;;;;19.27;82.70;95746.09;5035178;28;20208;-69
2023/10/14 00:10:48;;;;;;;4.03;2.53;;;;;;;18.99;84.35;95737.28;5036297;28;20973;-69
2023/10/14 00:13:16;;;;;;;5.50;2.72;;;;;;;18.94;85.54;95742.53;5035764;28;21124;-69
2023/10/14 00:15:43;;;;;;;3.08;1.50;;;;;;;18.86;86.83;95742.13;5035972;28;20292;-69
2023/10/14 00:18:10;;;;;;;5.82;1.67;;;;;;;19.02;88.50;95731.47;5035414;28;20193;-69
2023/10/14 00:20:36;;;;;;;5.68;2.30;;;;;;;18.87;87.68;95738.41;5035476;28;20205;-69
2023/10/14 00:23:03;;;;;;;3.53;1.83;;;;;;;19.04;86.88;95724.00;5036516;28;20227;-69
2023/10/14 00:25:32;;;;;;;2.80;1.42;;;;;;;19.15;87.97;95726.63;5036192;28;20225;-69
2023/10/14 00:28:00;;;;;;;2.85;1.42;;;;;;;19.16;86.69;95730.13;5035975;28;20356;-69
2023/10/14 00:30:31;;;;;;;2.63;1.40;;;;;;;19.33;85.77;95729.06;5035528;28;20683;-69
2023/10/14 00:32:58;;;;;;;5.03;1.73;;;;;;;19.35;86.35;95724.31;5035836;28;20250;-70
2023/10/14 00:35:26;;;;;;;5.03;1.60;;;;;;;19.43;85.88;95729.25;5035459;28;20201;-69
2023/10/14 00:37:53;;;;;;;3.97;1.65;;;;;;;19.45;87.20;95720.97;5035804;28;20205;-69
2023/10/14 00:40:22;;;;;;;1.50;1.15;;;;;;;19.49;87.67;95716.75;5035251;28;20205;-69
2023/10/14 00:42:51;;;;;;;6.50;2.08;;;;;;;19.51;87.89;95712.00;5035468;28;20225;-70
2023/10/14 00:45:20;;;;;;;6.32;1.95;;;;;;;19.38;88.68;95717.69;5035133;28;20315;-69
2023/10/14 00:47:48;;;;;;;3.80;1.75;;;;;;;19.55;87.91;95705.09;5036018;28;20205;-69
2023/10/14 00:52:59;;;;;;;2.83;1.52;;;;;;;19.37;88.84;95708.84;5035962;28;20582;-69
2023/10/14 00:55:35;;;;;;;3.05;1.63;;;;;;;19.39;88.86;95701.41;5036157;28;20201;-69
2023/10/14 00:58:02;;;;;;;3.90;2.10;;;;;;;19.45;89.16;95697.75;5034626;28;21028;-69
2023/10/14 01:00:37;;;;;;;3.17;1.45;;;;;;;19.23;92.32;95696.06;5035623;28;20205;-70
2023/10/14 01:03:09;;;;;;;2.97;1.35;;;;;;;19.32;93.46;95702.59;5035710;28;20239;-69
2023/10/14 01:05:35;;;;;;;5.10;2.00;;;;;;;19.24;93.10;95695.81;5035441;28;20302;-69
2023/10/14 01:08:04;;;;;;;4.88;2.05;;;;;;;19.27;93.96;95690.00;5034747;28;20201;-69
2023/10/14 01:10:30;;;;;;;4.15;1.98;;;;;;;19.23;93.83;95680.03;5035609;28;20216;-69
2023/10/14 01:12:57;;;;;;;4.97;1.83;;;;;;;19.24;95.19;95677.09;5035336;28;20239;-69
2023/10/14 01:15:29;;;;;;;4.00;1.50;;;;;;;19.41;96.61;95679.78;5034875;28;20229;-69
2023/10/14 01:17:56;;;;;;;5.55;1.50;;;;;;;19.26;95.11;95679.56;5034679;28;20774;-69
2023/10/14 01:20:37;;;;;;;3.60;1.45;;;;;;;19.35;93.73;95681.56;5034635;28;20213;-69
2023/10/14 01:23:07;;;;;;;4.45;2.00;;;;;;;19.32;95.50;95683.91;5035165;28;20217;-69
2023/10/14 01:25:43;;;;;;;4.50;1.65;;;;;;;19.34;97.69;95679.94;5036475;28;20930;-70
2023/10/14 01:28:12;;;;;;;3.30;1.52;;;;;;;19.28;97.23;95693.47;5038171;28;20694;-69
2023/10/14 01:30:55;;;;;;;4.18;2.10;;;;;;;19.42;96.59;95686.75;5038970;28;20263;-69
2023/10/14 01:33:25;;;;;;;3.30;1.70;;;;;;;19.41;94.81;95687.78;5038854;28;20628;-70
2023/10/14 01:35:52;;;;;;;3.97;1.60;;;;;;;19.30;95.92;95688.69;5039384;28;20197;-70
2023/10/14 01:38:23;;;;;;;3.20;1.70;;;;;;;19.60;94.62;95689.94;5038659;28;20204;-70
2023/10/14 01:40:50;;;;;;;2.85;1.35;;;;;;;19.45;94.55;95684.41;5039164;28;20212;-70
2023/10/14 01:43:17;;;;;;;3.45;1.40;;;;;;;19.49;96.64;95674.00;5039074;28;20221;-70
2023/10/14 01:45:59;;;;;;;4.35;2.42;;;;;;;19.45;98.14;95679.06;5038181;28;21036;-70
2023/10/14 01:48:30;;;;;;;2.58;1.60;;;;;;;19.17;100.00;95680.97;5038696;28;20299;-70
2023/10/14 01:50:57;;;;;;;6.78;1.88;;;;;;;19.17;99.67;95686.31;5039045;28;20258;-70
2023/10/14 01:53:27;;;;;;;4.50;2.05;;;;;;;19.53;96.41;95675.16;5037904;28;20267;-70
2023/10/14 01:55:55;;;;;;;7.55;1.98;;;;;;;19.53;96.81;95678.63;5038556;28;20220;-70
2023/10/14 01:58:29;;;;;;;5.13;1.50;;;;;;;19.46;98.98;95674.50;5037684;28;20209;-70
2023/10/14 02:01:04;;;;;;;6.32;2.22;;;;;;;19.48;99.00;95667.06;5038718;28;20197;-70
2023/10/14 02:03:35;;;;;;;3.33;1.83;;;;;;;19.26;100.00;95668.88;5038735;28;20267;-70
2023/10/14 02:06:10;;;;;;;6.15;1.88;;;;;;;19.15;100.00;95665.22;5036411;28;20688;-70
2023/10/14 02:08:38;;;;;;;5.03;2.08;;;;;;;19.51;99.30;95671.91;5037694;28;20201;-70
2023/10/14 02:11:05;;;;;;;4.13;1.92;;;;;;;19.34;99.71;95668.44;5038819;28;20570;-70
2023/10/14 02:13:36;;;;;;;5.80;2.20;;;;;;;19.53;98.90;95672.50;5037574;28;20239;-70
2023/10/14 02:16:06;;;;;;;2.33;1.40;;;;;;;19.65;97.06;95674.81;5037791;28;20669;-70
2023/10/14 02:18:36;;;;;;;4.25;1.58;;;;;;;19.73;96.95;95678.94;5037821;28;20212;-70
2023/10/14 02:21:08;;;;;;;5.88;2.30;;;;;;;19.70;98.23;95668.72;5038438;28;20201;-69
2023/10/14 02:23:46;;;;;;;2.85;1.90;;;;;;;19.92;98.36;95669.56;5037369;28;20247;-70
2023/10/14 02:26:22;;;;;;;5.22;1.60;;;;;;;20.27;96.41;95662.81;5038224;28;20778;-70
2023/10/14 02:28:52;;;;;;;4.00;1.92;;;;;;;20.00;97.54;95653.91;5037025;28;20579;-70
2023/10/14 02:31:28;;;;;;;4.20;1.80;;;;;;;20.04;98.48;95657.69;5038034;28;20695;-70
2023/10/14 02:33:55;;;;;;;3.45;2.00;;;;;;;20.12;95.84;95667.97;5037993;28;20229;-70
2023/10/14 02:36:27;;;;;;;3.15;1.80;;;;;;;20.18;94.86;95670.44;5038162;28;20197;-69
2023/10/14 02:38:54;;;;;;;12.48;1.70;;;;;;;20.38;93.53;95672.56;5036513;28;20766;-70
2023/10/14 02:41:26;;;;;;;4.28;1.90;;;;;;;20.49;93.99;95669.75;5038381;28;20265;-70
2023/10/14 02:44:01;;;;;;;5.35;1.83;;;;;;;20.34;94.32;95679.47;5037821;28;20298;-70
2023/10/14 02:46:28;;;;;;;4.65;1.77;;;;;;;20.65;92.71;95676.09;5037661;28;20583;-70
2023/10/14 02:48:54;;;;;;;5.85;1.92;;;;;;;20.58;93.07;95673.59;5037039;28;20209;-70
2023/10/14 02:51:29;;;;;;;4.18;1.80;;;;;;;20.48;94.71;95678.84;5037929;28;20271;-70
2023/10/14 02:54:04;;;;;;;2.80;1.60;;;;;;;20.49;96.85;95676.97;5037236;28;20224;-70
2023/10/14 02:56:46;;;;;;;2.72;1.45;;;;;;;20.33;97.69;95675.19;5037570;28;20204;-70
2023/10/14 02:59:17;;;;;;;6.03;1.58;;;;;;;20.52;97.76;95671.09;5036489;28;20201;-70
2023/10/14 03:01:50;;;;;;;3.42;1.80;;;;;;;20.15;100.00;95662.13;5036880;28;20590;-70
2023/10/14 03:04:19;;;;;;;2.70;1.48;;;;;;;20.01;100.00;95673.44;5036683;28;20248;-70
2023/10/14 03:06:53;;;;;;;5.57;2.28;;;;;;;20.20;100.00;95660.31;5037586;28;21063;-70
2023/10/14 03:09:32;;;;;;;3.35;1.83;;;;;;;20.30;100.00;95662.28;5036269;28;20292;-70
2023/10/14 03:12:00;;;;;;;3.90;1.70;;;;;;;20.33;100.00;95667.16;5037793;28;20205;-70
2023/10/14 03:14:27;;;;;;;5.70;2.03;;;;;;;20.20;100.00;95678.25;5037692;28;20212;-70
2023/10/14 03:16:54;;;;;;;4.65;2.10;;;;;;;20.00;100.00;95675.31;5036673;28;20263;-70
2023/10/14 03:19:24;;;;;;;6.32;2.47;;;;;;;20.13;100.00;95666.13;5036069;28;20216;-69
2023/10/14 03:21:58;;;;;;;3.30;1.85;;;;;;;20.13;100.00;95666.91;5037802;28;20303;-69
2023/10/14 03:24:30;;;;;;;5.30;1.90;;;;;;;20.27;100.00;95668.16;5036668;28;20715;-70
2023/10/14 03:27:02;;;;;;;4.55;1.90;;;;;;;20.18;100.00;95661.63;5036575;28;20440;-70
2023/10/14 03:29:31;;;;;;;3.30;1.67;;;;;;;20.27;100.00;95660.91;5036646;28;20215;-70
2023/10/14 03:31:57;;;;;;;3.80;1.70;;;;;;;20.17;100.00;95651.19;5037176;28;20209;-70
2023/10/14 03:34:30;;;;;;;3.88;2.00;;;;;;;20.26;100.00;95648.63;5036586;28;20321;-70
2023/10/14 03:37:00;;;;;;;7.32;2.60;;;;;;;20.30;100.00;95657.75;5036145;28;20224;-70
2023/10/14 03:39:38;;;;;;;3.13;1.80;;;;;;;20.18;100.00;95640.22;5036582;28;20301;-70
2023/10/14 03:42:10;;;;;;;3.95;2.25;;;;;;;20.13;100.00;95648.19;5036347;28;20603;-70
2023/10/14 03:44:41;;;;;;;4.72;1.80;;;;;;;20.40;100.00;95632.97;5036751;28;20672;-70
2023/10/14 03:47:14;;;;;;;2.88;1.75;;;;;;;20.23;100.00;95634.94;5036599;28;20220;-70
2023/10/14 03:49:42;;;;;;;4.47;2.45;;;;;;;20.32;100.00;95633.41;5036067;28;20205;-70
2023/10/14 03:52:12;;;;;;;3.90;1.98;;;;;;;20.44;100.00;95634.91;5035493;28;20201;-69
2023/10/14 03:54:42;;;;;;;3.50;1.77;;;;;;;20.33;100.00;95629.69;5036505;28;20555;-70
2023/10/14 03:57:14;;;;;;;2.92;1.70;;;;;;;20.53;100.00;95627.22;5036403;28;20201;-70
2023/10/14 03:59:46;;;;;;;4.20;1.80;;;;;;;20.47;100.00;95626.34;5036442;28;20216;-70
2023/10/14 04:02:18;;;;;;;2.80;1.67;;;;;;;20.42;100.00;95622.84;5036034;28;20211;-70
2023/10/14 04:04:44;;;;;;;2.53;1.70;;;;;;;20.56;100.00;95619.50;5035992;28;20201;-70
2023/10/14 04:07:15;;;;;;;3.30;2.10;;;;;;;20.60;100.00;95620.59;5036194;28;20221;-70
2023/10/14 04:09:46;;;;;;;6.30;1.98;;;;;;;20.49;100.00;95618.06;5035860;28;20213;-70
2023/10/14 04:12:28;;;;;;;5.70;2.17;;;;;;;20.67;100.00;95615.03;5035275;28;20201;-70
2023/10/14 04:14:56;;;;;;;5.10;2.13;;;;;;;20.80;100.00;95617.31;5036513;28;20229;-70
2023/10/14 04:17:30;;;;;;;8.82;3.45;;;;;;;20.54;100.00;95616.25;5035559;28;20209;-70
2023/10/14 04:20:14;;;;;;;3.15;1.58;;;;;;;20.48;100.00;95611.91;5035916;28;20220;-70
2023/10/14 04:22:41;;;;;;;11.80;4.88;;;;;;;20.52;100.00;95614.88;5035799;28;20725;-70
2023/10/14 04:25:16;;;;;;;11.20;4.18;;;;;;;20.52;100.00;95612.22;5036266;28;20201;-70
2023/10/14 04:27:55;;;;;;;10.75;3.00;;;;;;;20.30;100.00;95606.09;5035796;28;20260;-70
2023/10/14 04:30:31;;;;;;;7.13;3.03;;;;;;;20.48;100.00;95609.25;5035920;28;20201;-70
2023/10/14 04:33:17;;;;;;;5.82;2.38;;;;;;;20.10;100.00;95618.44;5035985;28;20224;-70
2023/10/14 04:35:57;;;;;;;4.60;2.05;;;;;;;20.17;100.00;95625.22;5035769;28;20208;-70
2023/10/14 04:38:28;;;;;;;13.50;2.00;;;;;;;20.44;100.00;95631.41;5034956;28;20213;-72
2023/10/14 04:40:58;;;;;;;7.47;1.80;;;;;;;20.45;100.00;95620.44;5036262;28;20232;-72
2023/10/14 04:43:49;;;;;;;2.38;1.75;;;;;;;20.49;100.00;95616.22;5035161;28;20225;-71
2023/10/14 04:46:21;;;;;;;3.90;2.22;;;;;;;20.51;100.00;95616.75;5034904;28;20227;-70
2023/10/14 04:48:51;;;;;;;3.70;1.98;;;;;;;20.59;100.00;95616.28;5035503;28;20201;-70
2023/10/14 04:51:19;;;;;;;4.93;2.00;;;;;;;20.49;100.00;95615.41;5035351;28;20204;-70
2023/10/14 04:53:46;;;;;;;5.82;1.60;;;;;;;20.43;100.00;95619.06;5035613;28;20221;-70
2023/10/14 04:56:21;;;;;;;2.67;1.63;;;;;;;20.54;100.00;95620.81;5035800;28;20456;-70
2023/10/14 04:58:52;;;;;;;3.65;2.10;;;;;;;20.47;100.00;95630.91;5035727;28;20208;-71
2023/10/14 05:01:24;;;;;;;4.35;1.73;;;;;;;20.77;100.00;95631.22;5037943;28;20204;-72
2023/10/14 05:03:55;;;;;;;5.32;1.92;;;;;;;20.52;100.00;95629.09;5039728;28;20233;-70
2023/10/14 05:06:22;;;;;;;3.55;1.77;;;;;;;20.43;100.00;95629.78;5039272;28;20494;-70
2023/10/14 05:08:51;;;;;;;4.00;2.05;;;;;;;20.51;100.00;95637.38;5039659;28;20227;-70
2023/10/14 05:11:19;;;;;;;3.75;2.10;;;;;;;20.50;100.00;95627.72;5039615;28;20216;-70
2023/10/14 05:13:53;;;;;;;5.78;1.98;;;;;;;20.55;100.00;95630.47;5039375;28;21291;-71
2023/10/14 05:16:21;;;;;;;3.15;2.08;;;;;;;20.62;100.00;95628.38;5039323;28;20200;-70
2023/10/14 05:18:59;;;;;;;5.97;1.73;;;;;;;20.64;100.00;95628.94;5039158;28;20213;-70
2023/10/14 05:21:36;;;;;;;5.78;1.73;;;;;;;20.46;100.00;95630.09;5038463;28;20209;-70
2023/10/14 05:24:03;;;;;;;2.88;1.58;;;;;;;20.50;100.00;95620.50;5038284;28;20233;-70
2023/10/14 05:26:35;;;;;;;3.50;1.50;;;;;;;20.49;100.00;95612.72;5038677;28;20225;-72
2023/10/14 05:29:11;;;;;;;2.85;2.03;;;;;;;20.63;100.00;95633.47;5038840;28;20263;-70
2023/10/14 05:31:39;;;;;;;6.57;2.08;;;;;;;20.64;100.00;95636.97;5039049;28;20266;-72
2023/10/14 05:34:05;;;;;;;3.42;2.28;;;;;;;20.54;100.00;95634.19;5039086;28;20228;-70
2023/10/14 05:36:34;;;;;;;5.40;2.67;;;;;;;20.59;100.00;95644.94;5039207;28;20271;-70
2023/10/14 05:39:02;;;;;;;4.88;2.10;;;;;;;20.53;100.00;95645.94;5038166;28;20408;-72
2023/10/14 05:41:29;;;;;;;6.38;2.45;;;;;;;20.48;100.00;95645.91;5038822;28;20197;-71
2023/10/14 05:43:55;;;;;;;4.07;2.33;;;;;;;20.42;100.00;95652.28;5038978;28;20225;-70
2023/10/14 05:46:22;;;;;;;3.70;2.10;;;;;;;20.48;100.00;95659.28;5038638;28;20225;-70
2023/10/14 05:48:52;;;;;;;6.82;2.40;;;;;;;20.59;100.00;95671.72;5038285;28;20205;-72
2023/10/14 05:51:19;;;;;;;4.63;2.00;;;;;;;20.28;100.00;95672.44;5039071;28;20653;-70
2023/10/14 05:53:46;;;;;;;8.73;2.60;;;;;;;20.29;100.00;95666.03;5037927;28;20229;-71
2023/10/14 05:56:14;;;;;;;5.95;1.95;;;;;;;20.20;100.00;95675.56;5037978;28;20274;-70
2023/10/14 05:58:41;;;;;;;3.83;1.70;;;;;;;20.30;100.00;95681.03;5038393;28;20233;-70
2023/10/14 06:01:09;;;;;;;5.63;1.88;;;;;;;20.40;100.00;95681.97;5038513;28;20205;-69
2023/10/14 06:03:35;;;;;;;3.55;2.10;;;;;;;20.31;100.00;95690.66;5038325;28;20282;-71
2023/10/14 06:06:09;;;;;;;4.63;2.40;;;;;;;20.34;100.00;95699.03;5038129;28;20237;-72
2023/10/14 06:08:36;;;;;;;5.13;2.33;;;;;;;20.17;100.00;95700.13;5037582;28;20220;-70
2023/10/14 06:11:05;;;;;;;8.75;1.90;;;;;;;20.20;100.00;95695.09;5037996;28;20209;-71
2023/10/14 06:13:31;;;;;;;5.15;2.20;;;;;;;20.30;100.00;95710.47;5037283;28;20225;-70
2023/10/14 06:16:00;;;;;;;4.93;1.90;;;;;;;20.29;100.00;95719.56;5038349;28;20205;-70
2023/10/14 06:18:29;;;;;;;1.70;1.02;;;;;;;20.08;100.00;95712.31;5037172;28;20205;-70
2023/10/14 06:20:55;;;;;;;3.78;1.98;;;;;;;20.07;100.00;95707.22;5037742;28;20209;-69
2023/10/14 06:23:26;;;;;;;6.30;2.65;;;;;;;20.34;100.00;95716.94;5037768;28;20372;-72
2023/10/14 06:25:53;;;;;;;4.82;2.63;;;;;;;20.31;100.00;95728.97;5037692;28;20209;-72
2023/10/14 06:28:20;;;;;;;4.22;2.28;;;;;;;20.17;100.00;95716.19;5037544;28;20209;-71
2023/10/14 06:30:46;;;;;;;4.78;1.85;;;;;;;20.17;100.00;95724.22;5039189;28;20209;-72
2023/10/14 06:33:13;;;;;;;4.00;1.98;;;;;;;20.19;100.00;95716.75;5037271;28;20225;-69
2023/10/14 06:35:43;;;;;;;2.50;1.75;;;;;;;20.23;100.00;95725.91;5037947;28;20205;-70
2023/10/14 06:38:10;;;;;;;3.40;1.85;;;;;;;20.27;100.00;95735.03;5037896;28;20208;-70
2023/10/14 06:40:42;;;;;;;2.67;1.52;;;;;;;20.19;100.00;95719.44;5037867;28;20204;-70
2023/10/14 06:43:09;;;;;;;4.22;2.00;;;;;;;20.11;100.00;95727.91;5037942;28;20225;-70
2023/10/14 06:45:36;;;;;;;2.60;1.65;;;;;;;20.13;100.00;95728.44;5037951;28;20211;-70
2023/10/14 06:48:04;;;;;;;4.47;2.25;;;;;;;20.04;100.00;95727.25;5036403;28;20665;-72
2023/10/14 06:50:32;;;;;;;3.45;1.73;;;;;;;19.97;100.00;95721.28;5034817;28;20376;-70
2023/10/14 06:52:59;;;;;;;4.40;2.17;;;;;;;20.29;100.00;95724.91;5037014;28;20253;-70
2023/10/14 06:55:26;;;;;;;6.25;2.33;;;;;;;20.26;100.00;95728.06;5035747;28;20664;-71
2023/10/14 06:57:55;;;;;;;4.22;2.17;;;;;;;20.34;100.00;95723.09;5036029;28;20600;-71
2023/10/14 07:00:30;;;;;;;7.38;2.60;;;;;;;20.22;100.00;95729.63;5036351;28;20394;-72
2023/10/14 07:02:59;;;;;;;5.78;1.95;;;;;;;20.14;100.00;95726.56;5036321;28;20241;-70
2023/10/14 07:05:26;;;;;;;5.85;2.78;;;;;;;20.15;100.00;95726.34;5036316;28;20210;-70
2023/10/14 07:07:53;;;;;;;5.03;1.92;;;;;;;20.10;100.00;95726.28;5035748;28;20221;-72
2023/10/14 07:10:27;;;;;;;2.42;1.60;;;;;;;20.05;100.00;95720.03;5036206;28;20690;-71
2023/10/14 07:12:58;;;;;;;5.10;1.75;;;;;;;20.01;100.00;95721.56;5036262;28;20227;-70
2023/10/14 07:15:25;;;;;;;3.88;1.48;;;;;;;20.22;100.00;95717.03;5035824;28;20201;-72
2023/10/14 07:17:54;;;;;;;3.22;1.63;;;;;;;20.18;100.00;95717.00;5036586;28;20197;-71
2023/10/14 07:20:22;;;;;;;5.05;1.55;;;;;;;20.13;100.00;95727.66;5035872;28;20718;-70
2023/10/14 07:22:49;;;;;;;7.18;2.00;;;;;;;20.12;100.00;95720.66;5036193;28;20225;-70
2023/10/14 07:25:16;;;;;;;3.83;1.98;;;;;;;20.04;100.00;95724.56;5036470;28;20836;-72
2023/10/14 07:27:43;;;;;;;3.22;1.98;;;;;;;20.06;100.00;95735.84;5036260;28;20248;-72
2023/10/14 07:30:14;;;;;;;5.97;2.35;;;;;;;20.24;100.00;95752.41;5035569;28;20690;-71
2023/10/14 07:32:43;;;;;;;2.33;1.55;;;;;;;20.21;100.00;95757.44;5036034;28;20229;-69
2023/10/14 07:35:11;;;;;;;2.63;1.45;;;;;;;20.34;100.00;95754.38;5036410;28;20205;-70
2023/10/14 07:37:38;;;;;;;3.28;2.08;;;;;;;20.26;100.00;95757.50;5036257;28;20200;-69
2023/10/14 07:40:11;;;;;;;6.10;1.85;;;;;;;20.23;100.00;95772.19;5035036;28;20361;-70
2023/10/14 07:42:38;;;;;;;3.38;1.52;;;;;;;20.02;100.00;95777.53;5036192;28;20261;-70
2023/10/14 07:45:05;;;;;;;3.00;1.52;;;;;;;20.25;100.00;95771.94;5036274;28;20216;-69
2023/10/14 07:47:33;;;;;;;4.57;2.00;;;;;;;20.33;100.00;95774.22;5034565;28;20260;-70
2023/10/14 07:50:00;;;;;;;6.78;1.92;;;;;;;20.12;100.00;95774.97;5035875;28;20201;-70
2023/10/14 07:52:26;;;;;;;4.03;1.15;;;;;;;20.34;100.00;95773.13;5035388;28;20230;-71
2023/10/14 07:54:53;;;;;;;6.03;2.15;;;;;;;20.23;100.00;95769.50;5036564;28;20516;-70
2023/10/14 07:57:19;;;;;;;3.90;1.95;;;;;;;20.60;100.00;95765.16;5035147;28;20213;-70
2023/10/14 07:59:48;;;;;;;6.95;1.90;;;;;;;20.59;100.00;95768.91;5035501;28;20653;-71
2023/10/14 08:02:18;;;;;;;3.10;1.70;;;;;;;20.70;100.00;95764.50;5034855;28;20523;-70
2023/10/14 08:04:46;;;;;;;2.92;1.73;;;;;;;20.96;100.00;95773.41;5035368;28;20589;-70
2023/10/14 08:07:14;;;;;;;4.90;1.73;;;;;;;20.87;100.00;95766.88;5035276;28;20217;-71
2023/10/14 08:09:40;;;;;;;2.40;1.50;;;;;;;21.19;100.00;95770.41;5034879;28;20691;-71
2023/10/14 08:12:07;;;;;;;2.78;1.42;;;;;;;21.16;100.00;95770.13;5035124;28;20207;-70
2023/10/14 08:14:33;;;;;;;5.10;2.00;;;;;;;21.18;100.00;95779.53;5034647;28;20205;-70
2023/10/14 08:17:00;;;;;;;2.63;1.50;;;;;;;20.88;100.00;95781.06;5035945;28;20209;-70
2023/10/14 08:19:26;;;;;;;4.88;1.85;;;;;;;21.11;100.00;95773.53;5034535;28;20607;-70
2023/10/14 08:21:55;;;;;;;1.95;1.42;;;;;;;21.25;100.00;95764.03;5035505;28;20201;-69
2023/10/14 08:24:21;;;;;;;2.90;1.55;;;;;;;21.11;100.00;95778.91;5035380;28;20221;-70
2023/10/14 08:26:49;;;;;;;3.55;1.70;;;;;;;21.33;100.00;95766.25;5035222;28;20229;-70
2023/10/14 08:29:19;;;;;;;5.55;2.15;;;;;;;21.35;100.00;95774.84;5034482;28;20515;-70
2023/10/14 08:31:51;;;;;;;3.75;1.70;;;;;;;21.30;100.00;95787.41;5035588;28;20605;-70
2023/10/14 08:34:18;;;;;;;9.02;2.47;;;;;;;21.05;100.00;95789.81;5035072;28;20652;-70
2023/10/14 08:36:44;;;;;;;2.00;1.17;;;;;;;21.02;100.00;95801.84;5034780;28;20197;-70
2023/10/14 08:39:14;;;;;;;3.40;1.52;;;;;;;21.16;100.00;95791.56;5035020;28;20201;-70
2023/10/14 08:41:45;;;;;;;10.18;2.00;;;;;;;21.26;100.00;95791.66;5035260;28;20660;-70
2023/10/14 08:44:12;;;;;;;3.08;1.40;;;;;;;21.22;100.00;95785.16;5035226;28;20610;-69
2023/10/14 08:46:43;;;;;;;3.92;1.55;;;;;;;21.22;100.00;95796.72;5035341;28;20220;-70
2023/10/14 08:49:12;;;;;;;7.35;2.33;;;;;;;21.72;100.00;95786.47;5034493;28;20757;-70
2023/10/14 08:51:40;;;;;;;3.45;1.73;;;;;;;21.71;100.00;95785.66;5034971;28;20291;-70
2023/10/14 08:54:10;;;;;;;3.67;2.08;;;;;;;21.64;100.00;95786.94;5033806;28;20221;-70
2023/10/14 08:56:39;;;;;;;4.97;2.13;;;;;;;21.92;100.00;95782.06;5035921;28;20233;-70
2023/10/14 08:59:07;;;;;;;5.72;1.63;;;;;;;21.66;100.00;95792.84;5033796;28;20292;-70
2023/10/14 09:01:35;;;;;;;6.75;2.20;;;;;;;21.80;100.00;95794.03;5034452;28;20543;-70
2023/10/14 09:04:02;;;;;;;4.35;1.83;;;;;;;21.72;100.00;95803.38;5035850;28;20225;-70
2023/10/14 09:06:29;;;;;;;7.78;1.75;;;;;;;21.91;100.00;95799.22;5035180;28;20204;-70
2023/10/14 09:08:56;;;;;;;2.70;1.27;;;;;;;21.74;100.00;95795.06;5034140;28;20242;-70
2023/10/14 09:11:26;;;;;;;6.15;2.33;;;;;;;21.90;100.00;95796.81;5034911;28;20571;-70
2023/10/14 09:14:03;;;;;;;3.15;1.33;;;;;;;22.17;100.00;95795.66;5034673;28;20235;-70
2023/10/14 09:16:32;;;;;;;2.80;1.30;;;;;;;21.84;100.00;95795.13;5034711;28;20201;-71
2023/10/14 09:18:59;;;;;;;2.47;1.42;;;;;;;21.73;100.00;95796.16;5033705;28;20197;-70
2023/10/14 09:21:26;;;;;;;4.88;2.45;;;;;;;21.94;100.00;95798.69;5034562;28;20387;-70
2023/10/14 09:23:53;;;;;;;3.42;1.40;;;;;;;21.74;100.00;95795.88;5034324;28;20225;-72
2023/10/14 09:26:21;;;;;;;3.65;1.33;;;;;;;22.05;100.00;95793.16;5034169;28;20193;-70
2023/10/14 09:28:48;;;;;;;3.08;1.70;;;;;;;22.25;100.00;95790.59;5034908;28;20748;-71
2023/10/14 09:31:16;;;;;;;2.75;1.50;;;;;;;22.69;100.00;95795.44;5034306;28;20211;-70
2023/10/14 09:33:44;;;;;;;6.22;2.58;;;;;;;22.43;100.00;95792.06;5034636;28;20220;-69
2023/10/14 09:36:14;;;;;;;3.00;2.08;;;;;;;22.72;100.00;95802.97;5034521;28;20201;-70
2023/10/14 09:38:43;;;;;;;11.23;1.98;;;;;;;22.20;100.00;95805.88;5034944;28;20472;-69
2023/10/14 09:41:11;;;;;;;1.80;1.42;;;;;;;22.29;100.00;95802.47;5034115;28;20215;-70
2023/10/14 09:43:42;;;;;;;3.70;1.58;;;;;;;21.97;100.00;95806.25;5034679;28;20221;-70
2023/10/14 09:46:11;;;;;;;4.82;2.15;;;;;;;21.94;100.00;95816.69;5034403;28;20607;-70
2023/10/14 09:48:40;;;;;;;5.28;1.65;;;;;;;21.87;100.00;95808.84;5037697;28;20231;-70
2023/10/14 09:51:12;;;;;;;2.60;1.45;;;;;;;21.86;100.00;95803.75;5037948;28;20862;-70
2023/10/14 09:53:39;;;;;;;4.47;1.85;;;;;;;21.66;100.00;95807.06;5038464;28;20618;-70
2023/10/14 09:56:09;;;;;;;6.20;1.92;;;;;;;22.01;100.00;95809.22;5037277;28;20201;-70
2023/10/14 09:58:41;;;;;;;4.43;2.08;;;;;;;21.83;100.00;95812.28;5037395;28;20197;-70
2023/10/14 10:01:11;;;;;;;5.88;2.03;;;;;;;22.11;100.00;95810.91;5037633;28;20201;-70
2023/10/14 10:03:44;;;;;;;5.78;2.28;;;;;;;22.01;100.00;95811.91;5037652;28;20217;-70
2023/10/14 10:06:22;;;;;;;3.72;1.75;;;;;;;22.02;100.00;95811.66;5037271;28;20201;-70
2023/10/14 10:09:28;;;;;;;4.90;1.70;;;;;;;22.04;100.00;95800.66;5038055;28;20220;-70
2023/10/14 10:11:58;;;;;;;3.17;1.67;;;;;;;22.24;100.00;95805.09;5037551;28;20205;-69
2023/10/14 10:14:26;;;;;;;2.90;1.55;;;;;;;22.14;100.00;95791.59;5037160;28;20280;-70
2023/10/14 10:16:53;;;;;;;2.72;1.55;;;;;;;22.19;100.00;95794.31;5036960;28;20583;-70
2023/10/14 10:19:22;;;;;;;2.15;1.42;;;;;;;22.34;100.00;95786.41;5037454;28;20197;-70
2023/10/14 10:22:13;;;;;;;6.68;1.48;;;;;;;23.01;99.65;95784.56;5037302;28;20671;-70
2023/10/14 10:24:43;;;;;;;4.50;1.85;;;;;;;23.29;97.32;95790.28;5037478;28;20208;-70
2023/10/14 10:27:11;;;;;;;3.35;1.48;;;;;;;22.66;99.09;95789.78;5037286;28;20698;-69
2023/10/14 10:29:49;;;;;;;2.72;1.40;;;;;;;22.79;98.32;95786.59;5037116;28;20619;-69
2023/10/14 10:32:20;;;;;;;2.72;1.48;;;;;;;22.47;100.00;95783.25;5037210;28;20316;-70
2023/10/14 10:35:17;;;;;;;2.17;1.35;;;;;;;22.47;100.00;95783.25;5037852;28;20205;-69
2023/10/14 10:37:51;;;;;;;1.73;1.15;;;;;;;22.04;100.00;95782.69;5037424;28;20201;-69
2023/10/14 10:40:22;;;;;;;2.78;1.55;;;;;;;21.94;100.00;95779.91;5036763;28;20208;-70
2023/10/14 10:42:54;;;;;;;3.22;1.42;;;;;;;22.11;100.00;95783.28;5037309;28;20312;-70
2023/10/14 10:45:22;;;;;;;1.90;1.13;;;;;;;21.81;100.00;95776.88;5037602;28;20205;-69
2023/10/14 10:47:54;;;;;;;0.90;0.77;;;;;;;21.74;100.00;95784.31;5036714;28;20225;-69
2023/10/14 10:50:23;;;;;;;1.75;0.88;;;;;;;21.66;100.00;95782.91;5037132;28;20216;-69
2023/10/14 10:53:16;;;;;;;2.75;1.58;;;;;;;21.85;100.00;95780.66;5036783;28;20772;-70
2023/10/14 10:55:46;;;;;;;3.53;0.82;;;;;;;21.47;100.00;95794.25;5036911;28;20197;-69
2023/10/14 10:58:14;;;;;;;2.35;1.20;;;;;;;21.19;100.00;95797.19;5035831;28;20677;-70
2023/10/14 11:00:42;;;;;;;2.53;1.17;;;;;;;21.06;100.00;95786.09;5036927;28;20201;-69
2023/10/14 11:03:13;;;;;;;1.90;0.88;;;;;;;20.71;100.00;95801.72;5036058;28;20225;-69
2023/10/14 11:05:42;;;;;;;3.53;0.85;;;;;;;20.58;100.00;95790.56;5037042;28;20583;-70
2023/10/14 11:08:10;;;;;;;2.65;1.55;;;;;;;20.32;100.00;95800.13;5034799;28;20275;-69
2023/10/14 11:10:39;;;;;;;2.35;1.10;;;;;;;20.20;100.00;95786.06;5036663;28;20663;-69
2023/10/14 11:13:06;;;;;;;3.13;1.20;;;;;;;20.12;100.00;95791.03;5036448;28;20541;-69
2023/10/14 11:15:34;;;;;;;1.73;0.95;;;;;;;20.14;100.00;95794.28;5036491;28;20296;-69
2023/10/14 11:18:02;;;;;;;1.90;1.20;;;;;;;19.95;100.00;95798.28;5036401;28;20668;-70
2023/10/14 11:20:43;;;;;;;3.13;1.65;;;;;;;19.74;100.00;95796.31;5036303;28;20198;-69
2023/10/14 11:23:11;;;;;;;3.10;1.38;;;;;;;19.89;100.00;95793.84;5035802;28;20785;-69
2023/10/14 11:25:40;;;;;;;3.22;1.40;;;;;;;19.95;100.00;95792.91;5035246;28;20220;-69
2023/10/14 11:28:07;;;;;;;2.22;1.40;;;;;;;19.56;100.00;95794.94;5035913;28;20231;-69
2023/10/14 11:30:34;;;;;;;2.92;1.27;;;;;;;19.68;100.00;95793.81;5036777;28;20216;-68
2023/10/14 11:33:02;;;;;;;4.45;2.17;;;;;;;19.48;100.00;95792.66;5036481;28;20221;-69
2023/10/14 11:35:29;;;;;;;4.65;1.90;;;;;;;19.34;100.00;95807.41;5035544;28;20622;-69
2023/10/14 11:38:00;;;;;;;2.28;1.30;;;;;;;19.05;100.00;95832.47;5036631;28;20529;-71
2023/10/14 11:40:34;;;;;;;1.45;0.70;;;;;;;18.09;100.00;95835.22;5034946;28;20197;-71
2023/10/14 11:43:01;;;;;;;0.57;0.47;;;;;;;17.54;100.00;95825.91;5036245;28;20231;-70